マレ の空港の天気 - METARとTAF

マレ国際空港 ( VRMM / MLE ) - モルディブ Hulhule Island, North Male Atoll
飛行場実況気象(Metar)
観測時間01/23 10:00 MVT (01/23 05:00 UTC)
風向・風速東 3m/s
視程7000m
天気現象
少しの雲 雲底高度 550m
少しの雲 雲底高度 580m
全天の8割程度の雲 雲底高度 7920m
気温27℃
湿度79%
気圧1011hPa
METARVRMM 230500Z 09005KT 7000 FEW018 FEW019CB BKN260 27/23 Q1011 CB SW,W TEMPO 5000 -SHRA
過去の天気等 Google飛行場航空写真 Wunderground天気予報

過去48時間のMETAR

飛行場予報(TAF)
発表時間: 1/23 10:00 MVT (1/23 05:00 UTC)
予報対象時間: 23日11時 MVT ~ 24日17時 MVT
風向・風速東北東 3m/s
視程7,000m
少しの塔状積雲 雲底高度 550m
23日11時 MVT ~ 23日17時 MVT に一時的に
視程5,000m
天気現象弱い雷雨
少しの積乱雲 雲底高度 580m
TAF VRMM 230500Z 2306/2412 07006KT 7000 FEW018TCU
TEMPO 2306/2312 5000 -TSRA FEW019CB